Time;durP1;ratioP1;P1;durP2;ratioP2;P2;SDS_P1;SDS_P2;PMS_P1;PMS_P2;Temp;Humidity;BMP_temperature;BMP_pressure;BME280_temperature;BME280_humidity;BME280_pressure;Samples;Min_cycle;Max_cycle;Signal;HPM_P1;HPM_P2
2021/04/14 00:00:06;;;;;;;5.45;2.13;;;3.10;99.90;;;;;;5035604;28;20242;-78
2021/04/14 00:02:34;;;;;;;6.07;2.28;;;3.10;99.90;;;;;;5035516;28;20222;-78
2021/04/14 00:05:02;;;;;;;8.55;1.95;;;3.00;99.90;;;;;;5035707;28;20216;-80
2021/04/14 00:07:29;;;;;;;4.45;2.15;;;3.00;99.90;;;;;;5036208;28;20219;-79
2021/04/14 00:09:55;;;;;;;4.65;1.67;;;3.10;99.90;;;;;;5037271;28;20643;-78
2021/04/14 00:12:22;;;;;;;3.58;2.28;;;3.00;99.90;;;;;;5035124;28;20209;-78
2021/04/14 00:15:12;;;;;;;7.15;2.78;;;2.90;99.90;;;;;;5035328;28;20595;-78
2021/04/14 00:17:58;;;;;;;6.22;2.58;;;3.00;99.90;;;;;;5034983;28;20199;-79
2021/04/14 00:20:44;;;;;;;7.38;2.42;;;3.00;99.90;;;;;;5039910;28;20291;-78
2021/04/14 00:23:29;;;;;;;4.30;2.13;;;3.10;99.90;;;;;;5033303;28;20617;-77
2021/04/14 00:26:14;;;;;;;3.70;1.85;;;3.10;99.90;;;;;;5034809;28;20660;-78
2021/04/14 00:28:59;;;;;;;5.97;2.30;;;3.00;99.90;;;;;;5034640;28;20243;-77
2021/04/14 00:31:45;;;;;;;4.67;2.40;;;3.00;99.90;;;;;;5034374;28;20234;-78
2021/04/14 00:34:31;;;;;;;7.40;3.05;;;2.90;99.90;;;;;;5018325;28;20632;-78
2021/04/14 00:37:18;;;;;;;6.00;2.70;;;2.90;99.90;;;;;;5038762;28;20209;-78
2021/04/14 00:40:05;;;;;;;3.15;2.00;;;2.80;99.90;;;;;;5044735;28;20273;-78
2021/04/14 00:42:51;;;;;;;8.68;1.98;;;2.80;99.90;;;;;;5034517;28;20219;-79
2021/04/14 00:45:36;;;;;;;5.18;2.33;;;2.90;99.90;;;;;;5035030;28;20247;-78
2021/04/14 00:48:22;;;;;;;6.57;2.35;;;2.80;99.90;;;;;;5020020;28;20299;-78
2021/04/14 00:51:08;;;;;;;7.10;2.45;;;2.90;99.90;;;;;;5034400;28;20207;-78
2021/04/14 00:53:54;;;;;;;5.90;2.92;;;2.90;99.90;;;;;;5033758;28;20210;-78
2021/04/14 00:56:39;;;;;;;2.30;1.95;;;2.80;99.90;;;;;;5033773;28;20218;-78
2021/04/14 00:59:25;;;;;;;3.43;2.23;;;2.80;99.90;;;;;;5034716;28;20282;-78
2021/04/14 01:02:10;;;;;;;4.05;1.88;;;3.00;99.90;;;;;;5034265;28;20200;-78
2021/04/14 01:05:16;;;;;;;3.43;2.30;;;3.10;99.90;;;;;;5034507;28;20222;-79
2021/04/14 01:08:20;;;;;;;4.53;3.08;;;3.20;99.90;;;;;;5038416;28;20728;-79
2021/04/14 01:11:28;;;;;;;6.28;2.22;;;3.20;99.90;;;;;;5100965;22;20242;-82
2021/04/14 01:14:32;;;;;;;9.23;2.22;;;3.10;99.90;;;;;;5068990;28;20190;-82
2021/04/14 01:17:35;;;;;;;4.95;2.20;;;3.20;99.90;;;;;;5068843;28;20198;-82
2021/04/14 01:20:39;;;;;;;7.57;2.67;;;3.00;99.90;;;;;;5067524;28;20284;-82
2021/04/14 01:23:44;;;;;;;2.85;2.10;;;3.00;99.90;;;;;;5067880;28;20226;-82
2021/04/14 01:26:49;;;;;;;3.97;2.30;;;3.10;99.90;;;;;;5067423;28;20198;-82
2021/04/14 01:29:53;;;;;;;7.97;2.33;;;3.20;99.90;;;;;;5068044;28;20234;-82
2021/04/14 01:32:57;;;;;;;4.10;2.17;;;3.20;99.90;;;;;;5070043;28;20206;-82
2021/04/14 01:36:04;;;;;;;6.80;3.17;;;3.30;99.90;;;;;;5069902;28;20233;-81
2021/04/14 01:39:11;;;;;;;9.57;2.58;;;3.20;99.90;;;;;;5069340;28;20182;-82
2021/04/14 01:42:15;;;;;;;3.33;2.13;;;3.10;99.90;;;;;;5069115;28;20256;-83
2021/04/14 01:45:23;;;;;;;5.78;2.10;;;2.90;99.90;;;;;;5069343;28;20213;-82
2021/04/14 01:48:27;;;;;;;5.05;2.88;;;3.00;99.90;;;;;;5069276;28;20234;-82
2021/04/14 01:51:31;;;;;;;6.63;3.17;;;2.90;99.90;;;;;;5065548;28;20214;-81
2021/04/14 01:54:36;;;;;;;3.70;2.60;;;2.80;99.90;;;;;;5065892;28;20198;-83
2021/04/14 01:57:43;;;;;;;5.32;2.75;;;2.70;99.90;;;;;;5065260;28;20178;-82
2021/04/14 02:00:51;;;;;;;4.22;2.60;;;2.60;99.90;;;;;;5065058;28;20218;-83
2021/04/14 02:03:55;;;;;;;4.43;2.33;;;2.50;99.90;;;;;;5063555;28;20198;-80
2021/04/14 02:06:59;;;;;;;6.95;3.40;;;2.40;99.90;;;;;;5064185;28;20197;-81
2021/04/14 02:10:41;;;;;;;6.75;2.70;;;2.50;99.90;;;;;;5063599;28;20217;-81
2021/04/14 02:14:23;;;;;;;6.03;3.03;;;2.60;99.90;;;;;;5044989;28;20191;-82
2021/04/14 02:18:04;;;;;;;6.38;2.88;;;2.90;99.90;;;;;;5044149;28;20223;-80
2021/04/14 02:21:46;;;;;;;5.73;2.87;;;2.70;99.90;;;;;;5044943;28;20266;-81
2021/04/14 02:25:28;;;;;;;6.45;2.88;;;2.40;99.90;;;;;;5060299;28;20198;-81
2021/04/14 02:29:10;;;;;;;4.53;3.07;;;2.30;99.90;;;;;;5063415;28;20210;-81
2021/04/14 02:32:51;;;;;;;4.30;2.77;;;2.30;99.90;;;;;;5040620;28;20199;-80
2021/04/14 02:36:33;;;;;;;4.85;3.35;;;2.30;99.90;;;;;;5044342;28;20202;-80
2021/04/14 02:40:14;;;;;;;6.40;2.88;;;2.20;99.90;;;;;;5043071;28;20299;-81
2021/04/14 02:43:56;;;;;;;5.43;3.33;;;2.20;99.90;;;;;;5063335;28;20264;-82
2021/04/14 02:47:38;;;;;;;3.63;2.97;;;2.10;99.90;;;;;;5064239;28;20204;-82
2021/04/14 02:51:20;;;;;;;5.65;3.13;;;2.20;99.90;;;;;;5063270;28;20213;-80
2021/04/14 02:55:02;;;;;;;4.03;2.90;;;2.20;99.90;;;;;;5063097;28;20244;-81
2021/04/14 02:58:08;;;;;;;3.60;3.27;;;2.40;99.90;;;;;;5062657;28;20214;-80
2021/04/14 03:00:35;;;;;;;4.50;3.25;;;2.30;99.90;;;;;;5066319;28;20237;-81
2021/04/14 03:03:03;;;;;;;4.00;3.17;;;2.40;99.90;;;;;;5066943;28;20259;-82
2021/04/14 03:05:32;;;;;;;6.32;3.72;;;2.40;99.90;;;;;;5066609;28;20259;-81
2021/04/14 03:07:59;;;;;;;5.60;3.22;;;2.50;99.90;;;;;;5066493;28;20227;-81
2021/04/14 03:10:27;;;;;;;5.20;3.60;;;2.50;99.90;;;;;;5067255;28;20253;-80
2021/04/14 03:12:54;;;;;;;3.80;3.43;;;2.50;99.90;;;;;;5068063;28;20263;-81
2021/04/14 03:15:25;;;;;;;4.73;3.00;;;2.50;99.90;;;;;;5067719;28;20199;-80
2021/04/14 03:18:14;;;;;;;5.40;3.85;;;2.40;99.90;;;;;;5047136;28;20299;-81
2021/04/14 03:20:41;;;;;;;3.55;3.10;;;2.30;99.90;;;;;;5049111;28;20231;-82
2021/04/14 03:23:09;;;;;;;4.88;3.20;;;2.40;99.90;;;;;;5048158;28;20207;-81
2021/04/14 03:25:36;;;;;;;8.45;3.58;;;2.40;99.90;;;;;;5046360;28;20259;-82
2021/04/14 03:28:04;;;;;;;6.35;3.50;;;2.40;99.90;;;;;;5048008;28;20250;-82
2021/04/14 03:30:34;;;;;;;4.95;3.47;;;2.50;99.90;;;;;;5047003;28;20342;-79
2021/04/14 03:33:02;;;;;;;8.32;3.83;;;2.60;99.90;;;;;;5047657;28;20192;-80
2021/04/14 03:35:29;;;;;;;6.75;3.88;;;2.70;99.90;;;;;;5047277;28;20283;-82
2021/04/14 03:37:57;;;;;;;6.75;3.67;;;2.70;99.90;;;;;;5047801;28;20192;-83
2021/04/14 03:40:24;;;;;;;4.95;4.13;;;2.80;99.90;;;;;;5047335;28;20310;-81
2021/04/14 03:42:52;;;;;;;5.55;4.03;;;2.90;99.90;;;;;;5046981;28;20200;-82
2021/04/14 03:45:25;;;;;;;5.72;3.22;;;2.90;99.90;;;;;;5047405;28;20196;-81
2021/04/14 03:47:53;;;;;;;4.47;3.65;;;3.00;99.90;;;;;;5029788;28;20223;-82
2021/04/14 03:50:21;;;;;;;3.97;3.63;;;3.00;99.90;;;;;;5047112;28;20227;-82
2021/04/14 03:52:49;;;;;;;4.07;3.78;;;3.10;99.90;;;;;;5045477;28;20196;-81
2021/04/14 03:55:17;;;;;;;9.23;4.22;;;3.20;99.90;;;;;;5064486;28;20215;-83
2021/04/14 03:57:44;;;;;;;8.60;3.60;;;3.00;99.90;;;;;;5067195;28;20203;-82
2021/04/14 04:00:13;;;;;;;3.25;2.95;;;3.00;99.90;;;;;;5066226;28;20207;-82
2021/04/14 04:02:42;;;;;;;6.60;4.13;;;3.00;99.90;;;;;;5066187;28;20206;-81
2021/04/14 04:05:11;;;;;;;6.15;4.07;;;3.10;99.90;;;;;;5067141;28;20203;-82
2021/04/14 04:07:38;;;;;;;6.00;3.40;;;3.10;99.90;;;;;;5064262;28;20283;-82
2021/04/14 04:10:08;;;;;;;4.85;4.05;;;3.10;99.90;;;;;;5064537;28;20230;-80
2021/04/14 04:12:35;;;;;;;6.90;3.35;;;3.00;99.90;;;;;;5066733;28;20218;-82
2021/04/14 04:15:04;;;;;;;6.53;4.20;;;2.90;99.90;;;;;;5066826;28;20282;-81
2021/04/14 04:17:31;;;;;;;8.68;4.43;;;2.90;99.90;;;;;;5066025;28;20223;-82
2021/04/14 04:19:58;;;;;;;8.73;5.07;;;2.80;99.90;;;;;;5048646;28;20222;-82
2021/04/14 04:22:25;;;;;;;10.15;4.65;;;2.90;99.90;;;;;;5065975;28;20196;-82
2021/04/14 04:24:52;;;;;;;6.65;4.20;;;2.90;99.90;;;;;;5066547;28;20221;-82
2021/04/14 04:27:19;;;;;;;5.65;4.90;;;2.90;99.90;;;;;;5065135;28;20267;-83
2021/04/14 04:29:46;;;;;;;8.52;4.80;;;2.70;99.90;;;;;;5065772;28;20219;-82
2021/04/14 04:32:13;;;;;;;4.35;3.50;;;2.80;99.90;;;;;;5065702;28;20203;-82
2021/04/14 04:34:39;;;;;;;5.97;5.38;;;2.80;99.90;;;;;;5065605;28;20195;-83
2021/04/14 04:37:06;;;;;;;10.98;4.28;;;2.70;99.90;;;;;;5065446;28;20267;-83
2021/04/14 04:39:34;;;;;;;9.13;5.20;;;2.70;99.90;;;;;;5064970;28;20191;-83
2021/04/14 04:42:01;;;;;;;11.27;4.75;;;2.70;99.90;;;;;;5064504;28;20211;-82
2021/04/14 04:44:28;;;;;;;8.33;4.33;;;2.70;99.90;;;;;;5065588;28;20226;-82
2021/04/14 04:46:54;;;;;;;9.52;4.60;;;2.70;99.90;;;;;;5065941;28;20210;-83
2021/04/14 04:49:21;;;;;;;6.60;4.97;;;2.80;99.90;;;;;;5066023;28;20338;-82
2021/04/14 04:51:48;;;;;;;5.75;4.22;;;2.80;99.90;;;;;;5065844;28;20249;-82
2021/04/14 04:54:15;;;;;;;6.95;4.50;;;2.80;99.90;;;;;;5064597;28;20240;-83
2021/04/14 04:56:42;;;;;;;9.73;4.22;;;2.80;99.90;;;;;;5065056;28;20199;-83
2021/04/14 04:59:09;;;;;;;10.52;5.13;;;2.80;99.90;;;;;;5065385;28;20203;-83
2021/04/14 05:01:36;;;;;;;5.32;4.43;;;2.90;99.90;;;;;;5063999;28;20221;-82
2021/04/14 05:04:03;;;;;;;8.20;4.65;;;2.90;99.90;;;;;;5068758;28;20199;-83
2021/04/14 05:06:30;;;;;;;8.70;4.90;;;3.00;99.90;;;;;;5076997;28;20180;-84
2021/04/14 05:08:57;;;;;;;5.93;4.10;;;2.90;99.90;;;;;;5075681;28;20279;-83
2021/04/14 05:11:24;;;;;;;6.72;4.90;;;2.80;99.90;;;;;;5076774;28;20379;-84
2021/04/14 05:13:51;;;;;;;8.95;4.50;;;2.90;99.90;;;;;;5077467;28;20193;-84
2021/04/14 05:16:18;;;;;;;8.02;4.90;;;2.80;99.90;;;;;;5076181;28;20175;-82
2021/04/14 05:18:45;;;;;;;8.43;6.20;;;2.90;99.90;;;;;;5075833;28;20290;-81
2021/04/14 05:21:12;;;;;;;11.80;5.07;;;3.00;99.90;;;;;;5062641;28;20598;-81
2021/04/14 05:23:39;;;;;;;5.95;4.22;;;3.10;99.90;;;;;;5068661;28;20215;-84
2021/04/14 05:26:06;;;;;;;6.32;4.50;;;3.10;99.90;;;;;;5074703;28;20199;-83
2021/04/14 05:28:33;;;;;;;6.30;4.95;;;3.10;99.90;;;;;;5066819;28;20778;-83
2021/04/14 05:31:00;;;;;;;6.57;4.63;;;3.20;99.90;;;;;;5065197;28;20211;-83
2021/04/14 05:33:27;;;;;;;8.45;3.97;;;3.20;99.90;;;;;;5064184;28;20203;-83
2021/04/14 05:35:55;;;;;;;7.00;4.50;;;3.30;99.90;;;;;;5064039;28;20190;-82
2021/04/14 05:38:26;;;;;;;7.43;4.15;;;3.30;99.90;;;;;;5047663;28;20832;-82
2021/04/14 05:40:53;;;;;;;10.73;4.25;;;3.20;99.90;;;;;;5063754;28;20216;-80
2021/04/14 05:43:28;;;;;;;8.48;4.60;;;3.20;99.90;;;;;;5063869;28;20187;-82
2021/04/14 05:45:57;;;;;;;8.43;4.78;;;3.30;99.90;;;;;;5062673;28;20195;-82
2021/04/14 05:48:25;;;;;;;5.18;4.43;;;3.50;99.90;;;;;;5064518;28;20227;-81
2021/04/14 05:50:52;;;;;;;10.57;4.30;;;3.70;99.90;;;;;;5061389;28;20277;-82
2021/04/14 05:53:28;;;;;;;10.23;4.55;;;3.70;99.90;;;;;;5063651;28;20201;-83
2021/04/14 05:55:58;;;;;;;7.80;3.83;;;3.70;99.90;;;;;;5064231;28;20199;-82
2021/04/14 05:58:25;;;;;;;12.63;4.10;;;3.80;99.90;;;;;;5063744;28;20199;-83
2021/04/14 06:00:52;;;;;;;9.00;4.18;;;3.60;99.90;;;;;;5062330;28;20211;-79
2021/04/14 06:03:19;;;;;;;8.48;4.03;;;3.80;99.90;;;;;;5064144;28;20210;-82
2021/04/14 06:05:46;;;;;;;4.75;3.75;;;3.70;99.90;;;;;;5062249;28;20222;-83
2021/04/14 06:08:23;;;;;;;8.75;4.03;;;3.90;99.90;;;;;;5064008;28;20235;-81
2021/04/14 06:10:54;;;;;;;9.57;3.60;;;3.90;99.90;;;;;;5063414;28;20226;-82
2021/04/14 06:13:32;;;;;;;5.07;4.45;;;4.10;99.90;;;;;;5062498;28;20198;-82
2021/04/14 06:16:02;;;;;;;12.20;3.70;;;4.30;99.90;;;;;;5063579;28;20222;-82
2021/04/14 06:18:29;;;;;;;7.15;3.40;;;4.50;99.90;;;;;;5060852;28;20217;-82
2021/04/14 06:20:59;;;;;;;8.23;3.88;;;4.70;99.90;;;;;;5062119;28;20222;-82
2021/04/14 06:23:27;;;;;;;6.80;3.45;;;4.80;99.90;;;;;;5062276;28;20204;-81
2021/04/14 06:26:10;;;;;;;10.05;3.38;;;5.20;99.90;;;;;;5063142;28;20199;-81
2021/04/14 06:28:38;;;;;;;3.20;2.65;;;5.40;99.90;;;;;;5060141;28;20245;-82
2021/04/14 06:31:07;;;;;;;6.05;3.85;;;5.20;99.90;;;;;;5059317;28;20246;-81
2021/04/14 06:33:37;;;;;;;5.70;3.67;;;5.20;99.90;;;;;;5060003;28;20226;-82
2021/04/14 06:36:06;;;;;;;7.63;3.85;;;5.30;99.90;;;;;;5061828;28;20195;-81
2021/04/14 06:38:36;;;;;;;9.30;4.60;;;5.40;99.90;;;;;;5061761;28;20192;-81
2021/04/14 06:41:32;;;;;;;7.80;3.10;;;5.40;99.90;;;;;;5061604;28;20214;-81
2021/04/14 06:44:07;;;;;;;11.00;3.13;;;5.60;99.90;;;;;;5061346;28;20908;-80
2021/04/14 06:46:36;;;;;;;6.18;3.10;;;5.80;99.90;;;;;;5055481;28;20206;-81
2021/04/14 06:49:08;;;;;;;13.07;4.15;;;5.70;99.90;;;;;;5064548;28;20220;-84
2021/04/14 06:51:46;;;;;;;4.38;2.95;;;5.50;99.90;;;;;;5056060;28;20216;-85
2021/04/14 06:54:31;;;;;;;3.65;3.35;;;5.60;99.90;;;;;;5054924;28;20199;-85
2021/04/14 06:57:02;;;;;;;10.27;3.90;;;5.80;99.90;;;;;;5055706;28;20662;-81
2021/04/14 06:59:32;;;;;;;9.73;3.08;;;5.70;99.90;;;;;;5062876;28;20201;-85
2021/04/14 07:02:04;;;;;;;5.03;3.15;;;5.60;99.90;;;;;;5065032;28;20192;-86
2021/04/14 07:04:37;;;;;;;6.63;3.10;;;5.50;99.90;;;;;;5072897;28;20286;-85
2021/04/14 07:07:09;;;;;;;5.25;3.22;;;5.30;99.90;;;;;;5071408;28;20207;-86
2021/04/14 07:09:39;;;;;;;10.20;3.50;;;5.50;99.90;;;;;;5071633;28;20214;-85
2021/04/14 07:12:09;;;;;;;7.03;3.75;;;5.50;99.90;;;;;;5052830;23;20231;-34
2021/04/14 07:14:36;;;;;;;8.43;3.65;;;5.80;99.90;;;;;;5022171;28;20683;-34
2021/04/14 07:17:13;;;;;;;8.25;3.60;;;6.00;99.90;;;;;;5029308;28;20348;-35
2021/04/14 07:20:04;;;;;;;8.48;3.42;;;5.90;99.90;;;;;;5029913;28;20283;-35
2021/04/14 07:23:01;;;;;;;7.80;3.38;;;6.00;99.90;;;;;;5029172;28;20207;-34
2021/04/14 07:25:36;;;;;;;8.63;3.28;;;6.00;99.90;;;;;;5017769;28;20199;-36
2021/04/14 07:28:21;;;;;;;11.68;4.32;;;6.10;99.90;;;;;;5030014;28;20234;-34
2021/04/14 07:30:56;;;;;;;8.38;3.25;;;6.40;99.90;;;;;;5030208;28;20647;-37
2021/04/14 07:33:30;;;;;;;8.45;3.50;;;6.30;99.90;;;;;;5029936;28;20209;-35
2021/04/14 07:36:02;;;;;;;8.00;3.45;;;6.50;99.90;;;;;;5025177;28;20281;-35
2021/04/14 07:38:47;;;;;;;7.07;3.35;;;6.60;99.90;;;;;;5027071;28;20212;-35
2021/04/14 07:41:38;;;;;;;10.63;2.97;;;6.80;99.90;;;;;;5026603;28;20192;-36
2021/04/14 07:44:10;;;;;;;9.07;3.55;;;7.00;99.90;;;;;;5029304;28;20199;-35
2021/04/14 07:46:53;;;;;;;7.85;3.30;;;7.40;99.90;;;;;;5030402;28;20200;-34
2021/04/14 07:49:21;;;;;;;11.45;4.05;;;7.50;99.90;;;;;;5032675;28;20687;-35
2021/04/14 07:51:48;;;;;;;8.35;4.78;;;7.20;99.90;;;;;;5033233;28;20195;-35
2021/04/14 07:54:18;;;;;;;5.47;3.58;;;6.90;99.90;;;;;;5032788;28;20587;-34
2021/04/14 07:56:48;;;;;;;7.05;4.57;;;6.80;99.90;;;;;;5032781;28;20196;-34
2021/04/14 07:59:24;;;;;;;10.40;3.40;;;6.80;99.90;;;;;;5025913;28;20649;-34
2021/04/14 08:01:56;;;;;;;12.75;3.75;;;6.80;99.90;;;;;;5023145;28;20200;-34
2021/04/14 08:04:27;;;;;;;7.00;3.95;;;6.80;99.90;;;;;;5028229;28;20574;-35
2021/04/14 08:07:05;;;;;;;10.25;3.33;;;7.00;99.90;;;;;;5032635;28;20206;-35
2021/04/14 08:09:32;;;;;;;8.00;4.28;;;7.20;99.90;;;;;;5031640;28;20224;-35
2021/04/14 08:12:06;;;;;;;9.07;4.20;;;7.20;99.90;;;;;;5030892;28;20634;-35
2021/04/14 08:14:35;;;;;;;15.15;4.25;;;7.10;99.90;;;;;;5032408;28;20195;-35
2021/04/14 08:17:12;;;;;;;7.93;3.53;;;7.00;99.90;;;;;;5032128;28;20255;-34
2021/04/14 08:19:40;;;;;;;7.40;4.40;;;7.00;99.90;;;;;;5032324;28;20189;-35
2021/04/14 08:22:21;;;;;;;9.45;4.35;;;6.80;99.90;;;;;;5031510;28;20662;-35
2021/04/14 08:24:52;;;;;;;24.88;5.35;;;6.80;99.90;;;;;;5032636;28;20192;-36
2021/04/14 08:27:23;;;;;;;7.65;4.30;;;7.00;99.90;;;;;;5029355;28;20690;-35
2021/04/14 08:30:03;;;;;;;8.75;3.92;;;7.20;99.90;;;;;;5033981;28;20222;-34
2021/04/14 08:32:36;;;;;;;9.63;3.42;;;7.50;99.90;;;;;;5017935;28;20671;-34
2021/04/14 08:35:10;;;;;;;9.35;3.60;;;7.50;99.90;;;;;;5031635;28;20734;-36
2021/04/14 08:37:37;;;;;;;6.18;3.55;;;7.60;99.90;;;;;;5035374;28;20310;-36
2021/04/14 08:40:16;;;;;;;9.23;3.08;;;7.60;99.90;;;;;;5032618;28;20673;-34
2021/04/14 08:42:43;;;;;;;8.23;4.15;;;7.50;99.90;;;;;;5032322;28;20666;-34
2021/04/14 08:45:16;;;;;;;7.75;3.05;;;7.70;99.90;;;;;;5040185;28;20199;-35
2021/04/14 08:47:51;;;;;;;8.55;4.15;;;8.10;99.90;;;;;;5023392;28;20753;-35
2021/04/14 08:50:25;;;;;;;6.00;2.70;;;8.30;99.90;;;;;;5030701;28;20615;-34
2021/04/14 08:52:56;;;;;;;13.25;3.47;;;8.30;99.90;;;;;;5030392;28;20257;-35
2021/04/14 08:55:26;;;;;;;9.50;3.13;;;8.30;99.90;;;;;;5033665;28;20199;-35
2021/04/14 08:57:54;;;;;;;6.00;2.60;;;8.30;99.90;;;;;;5037396;28;20712;-35
2021/04/14 09:00:23;;;;;;;6.25;2.78;;;8.20;99.90;;;;;;5032146;28;20202;-35
2021/04/14 09:02:53;;;;;;;4.50;2.42;;;8.40;99.90;;;;;;5036047;28;20212;-36
2021/04/14 09:05:22;;;;;;;6.57;3.05;;;8.30;99.90;;;;;;5022721;28;20444;-34
2021/04/14 09:07:50;;;;;;;7.32;3.60;;;8.10;99.90;;;;;;5012593;28;20722;-35
2021/04/14 09:10:41;;;;;;;4.15;2.83;;;8.20;99.90;;;;;;5031154;28;20223;-35
2021/04/14 09:13:10;;;;;;;5.13;2.92;;;8.30;99.90;;;;;;5028824;28;20196;-34
2021/04/14 09:15:59;;;;;;;5.53;2.63;;;8.20;99.90;;;;;;5032087;28;20188;-35
2021/04/14 09:18:29;;;;;;;7.82;2.72;;;8.10;99.90;;;;;;5031959;28;20215;-35
2021/04/14 09:21:12;;;;;;;6.47;2.75;;;7.80;99.90;;;;;;5032027;28;20196;-35
2021/04/14 09:23:50;;;;;;;7.45;2.63;;;7.90;99.90;;;;;;5031869;28;20215;-35
2021/04/14 09:26:26;;;;;;;7.20;2.63;;;8.20;99.90;;;;;;5031974;28;20658;-35
2021/04/14 09:28:53;;;;;;;4.93;2.60;;;8.60;99.90;;;;;;5030741;28;20243;-37
2021/04/14 09:31:39;;;;;;;4.55;2.58;;;8.80;99.90;;;;;;5042256;28;20279;-35
2021/04/14 09:34:15;;;;;;;3.88;2.30;;;8.60;99.90;;;;;;5036666;28;20269;-35
2021/04/14 09:36:46;;;;;;;5.75;2.70;;;8.20;99.90;;;;;;5031695;28;20211;-34
2021/04/14 09:39:29;;;;;;;9.30;3.13;;;8.20;99.90;;;;;;5031331;28;20215;-35
2021/04/14 09:41:58;;;;;;;4.50;2.47;;;7.70;99.90;;;;;;5038735;28;20183;-34
2021/04/14 09:44:35;;;;;;;4.00;2.25;;;7.40;99.90;;;;;;5026493;28;20211;-35
2021/04/14 09:47:20;;;;;;;3.47;2.60;;;7.30;99.90;;;;;;5021250;28;20207;-35
2021/04/14 09:49:49;;;;;;;8.05;2.90;;;7.30;99.90;;;;;;5031351;28;20236;-35
2021/04/14 09:52:22;;;;;;;8.02;2.63;;;7.60;99.90;;;;;;5010825;28;20577;-35
2021/04/14 09:54:52;;;;;;;5.85;3.38;;;7.50;99.90;;;;;;5011623;28;20201;-35
2021/04/14 09:57:26;;;;;;;9.85;3.90;;;7.60;99.90;;;;;;5028207;28;20227;-35
2021/04/14 09:59:53;;;;;;;7.13;3.28;;;8.10;99.90;;;;;;5031044;28;20669;-34
2021/04/14 10:02:22;;;;;;;4.75;2.30;;;8.10;99.90;;;;;;5030787;28;20686;-37
2021/04/14 10:04:50;;;;;;;13.27;3.70;;;8.00;99.90;;;;;;5028346;28;20222;-35
2021/04/14 10:07:22;;;;;;;4.97;3.03;;;7.60;99.90;;;;;;5037089;28;20205;-35
2021/04/14 10:09:49;;;;;;;8.82;2.95;;;7.70;99.90;;;;;;5024867;28;20243;-35
2021/04/14 10:12:17;;;;;;;3.97;2.95;;;7.70;99.90;;;;;;5011283;28;20276;-35
2021/04/14 10:14:49;;;;;;;18.88;9.90;;;7.30;99.90;;;;;;5024626;28;20246;-35
2021/04/14 10:17:19;;;;;;;7.05;4.35;;;7.20;99.90;;;;;;5030671;28;20230;-35
2021/04/14 10:19:52;;;;;;;7.45;3.42;;;7.00;99.90;;;;;;5030384;28;20212;-35
2021/04/14 10:22:25;;;;;;;5.63;2.55;;;6.90;99.90;;;;;;5030587;28;20199;-35
2021/04/14 10:25:00;;;;;;;4.47;2.90;;;7.10;99.90;;;;;;5030647;28;20206;-36
2021/04/14 10:27:28;;;;;;;3.45;2.55;;;7.00;99.90;;;;;;5030138;28;20255;-35
2021/04/14 10:29:59;;;;;;;5.10;2.28;;;7.00;99.90;;;;;;5030236;28;20250;-35
2021/04/14 10:32:31;;;;;;;3.63;2.55;;;7.00;99.90;;;;;;5030458;28;20294;-35
2021/04/14 10:35:08;;;;;;;4.85;3.17;;;6.90;99.90;;;;;;5027520;28;20192;-34
2021/04/14 10:37:41;;;;;;;6.00;2.55;;;7.10;99.90;;;;;;5030383;28;20212;-35
2021/04/14 10:40:18;;;;;;;5.00;2.85;;;7.30;99.90;;;;;;5019340;28;20573;-35
2021/04/14 10:42:45;;;;;;;6.43;2.55;;;7.80;99.90;;;;;;5009631;28;20202;-36
2021/04/14 10:45:18;;;;;;;2.78;1.95;;;8.00;99.90;;;;;;5017730;28;20199;-35
2021/04/14 10:47:46;;;;;;;4.22;1.92;;;8.20;99.90;;;;;;5030362;28;20239;-35
2021/04/14 10:50:28;;;;;;;6.25;2.08;;;7.90;99.90;;;;;;5030489;28;20290;-34
2021/04/14 10:53:00;;;;;;;4.85;2.20;;;7.60;99.90;;;;;;5030646;28;20393;-34
2021/04/14 10:55:33;;;;;;;3.63;1.70;;;7.50;99.90;;;;;;5029850;28;20693;-36
2021/04/14 10:58:03;;;;;;;6.40;1.75;;;7.20;99.90;;;;;;5021809;28;20220;-34
2021/04/14 11:00:33;;;;;;;2.42;1.90;;;7.20;99.90;;;;;;5028898;28;20204;-34
2021/04/14 11:03:05;;;;;;;2.47;1.45;;;7.70;99.90;;;;;;5038481;28;20402;-35
2021/04/14 11:05:32;;;;;;;3.83;1.42;;;8.10;99.90;;;;;;5051307;28;20198;-36
2021/04/14 11:07:59;;;;;;;3.65;2.15;;;8.40;99.90;;;;;;5050442;28;20640;-34
2021/04/14 11:10:32;;;;;;;4.35;1.80;;;8.30;99.90;;;;;;5049135;28;20192;-36
2021/04/14 11:12:59;;;;;;;3.05;1.20;;;8.40;99.90;;;;;;5050933;28;20558;-36
2021/04/14 11:15:32;;;;;;;2.78;1.40;;;8.50;99.90;;;;;;5039437;28;20226;-36
2021/04/14 11:18:02;;;;;;;1.88;0.93;;;8.60;99.90;;;;;;5029881;28;20222;-35
2021/04/14 11:20:43;;;;;;;7.00;1.83;;;9.00;99.90;;;;;;5034080;28;20291;-35
2021/04/14 11:23:18;;;;;;;4.25;2.40;;;9.40;99.90;;;;;;5033655;28;20585;-37
2021/04/14 11:25:45;;;;;;;4.63;2.38;;;9.80;99.90;;;;;;5034006;28;20207;-36
2021/04/14 11:28:13;;;;;;;2.20;1.90;;;10.10;99.90;;;;;;5034258;28;20254;-35
2021/04/14 11:30:50;;;;;;;3.35;1.80;;;9.90;99.90;;;;;;5033804;28;20210;-35
2021/04/14 11:33:19;;;;;;;2.85;1.70;;;10.20;99.90;;;;;;5033457;28;20290;-35
2021/04/14 11:35:47;;;;;;;2.47;1.70;;;10.50;99.90;;;;;;5033646;28;20389;-34
2021/04/14 11:38:33;;;;;;;4.50;1.77;;;10.40;99.90;;;;;;5025081;28;20219;-35
2021/04/14 11:41:11;;;;;;;4.82;1.75;;;10.10;99.90;;;;;;5035062;28;20287;-34
2021/04/14 11:43:38;;;;;;;4.90;1.90;;;9.80;99.90;;;;;;5036989;28;20183;-35
2021/04/14 11:46:27;;;;;;;2.88;2.00;;;10.70;99.90;;;;;;5033078;28;20635;-35
2021/04/14 11:48:57;;;;;;;4.65;1.98;;;11.30;99.90;;;;;;5013898;28;20218;-37
2021/04/14 11:51:29;;;;;;;9.63;3.08;;;12.20;99.90;;;;;;5026765;28;20569;-35
2021/04/14 11:53:58;;;;;;;7.18;1.88;;;12.60;99.90;;;;;;5033931;28;20245;-35
2021/04/14 11:56:45;;;;;;;5.35;2.15;;;12.50;99.90;;;;;;5033712;28;20287;-36
2021/04/14 11:59:24;;;;;;;3.33;1.60;;;12.20;99.90;;;;;;5047278;28;20223;-36
2021/04/14 12:02:00;;;;;;;3.97;2.45;;;11.70;99.90;;;;;;5051202;28;20207;-35
2021/04/14 12:04:28;;;;;;;1.95;1.75;;;11.50;99.90;;;;;;5032381;28;20207;-34
2021/04/14 12:06:55;;;;;;;2.63;1.70;;;11.70;99.90;;;;;;5031645;28;20229;-34
2021/04/14 12:09:22;;;;;;;2.35;1.73;;;11.10;99.90;;;;;;5024049;28;20240;-34
2021/04/14 12:12:09;;;;;;;6.32;2.38;;;10.70;99.90;;;;;;5036442;28;20262;-34
2021/04/14 12:14:36;;;;;;;6.03;2.22;;;10.60;99.90;;;;;;5033134;28;20317;-35
2021/04/14 12:17:03;;;;;;;5.03;3.88;;;10.20;99.90;;;;;;5053376;28;20278;-35
2021/04/14 12:19:32;;;;;;;4.38;2.40;;;9.90;99.90;;;;;;5051837;28;20195;-35
2021/04/14 12:21:59;;;;;;;4.63;1.60;;;9.70;99.90;;;;;;5052533;28;20187;-36
2021/04/14 12:24:27;;;;;;;3.15;2.17;;;9.10;99.90;;;;;;5048288;28;20208;-35
2021/04/14 12:26:54;;;;;;;18.58;13.80;;;8.50;99.90;;;;;;5032701;28;20201;-34
2021/04/14 12:29:20;;;;;;;6.60;2.72;;;8.30;99.90;;;;;;5033044;28;20220;-34
2021/04/14 12:31:47;;;;;;;5.53;2.25;;;8.20;99.90;;;;;;5026143;28;20685;-35
2021/04/14 12:34:14;;;;;;;6.65;2.35;;;7.90;99.90;;;;;;5032885;28;20204;-34
2021/04/14 12:36:41;;;;;;;4.95;2.17;;;8.00;99.90;;;;;;5029494;28;20195;-36
2021/04/14 12:39:17;;;;;;;2.05;1.58;;;7.90;99.90;;;;;;5033189;28;20733;-34
2021/04/14 12:41:44;;;;;;;4.78;2.05;;;7.90;99.90;;;;;;5032331;28;20210;-36
2021/04/14 12:44:10;;;;;;;2.55;1.88;;;8.10;99.90;;;;;;5032848;28;20200;-35
2021/04/14 12:46:39;;;;;;;2.40;1.90;;;8.30;99.90;;;;;;5025641;28;20566;-36
2021/04/14 12:49:11;;;;;;;4.18;2.15;;;8.50;99.90;;;;;;5027293;28;20266;-35
2021/04/14 12:51:40;;;;;;;4.70;2.55;;;9.00;99.90;;;;;;5029853;28;20686;-35
2021/04/14 12:54:24;;;;;;;3.05;1.60;;;9.50;99.90;;;;;;5029516;28;20216;-35
2021/04/14 12:56:59;;;;;;;4.45;2.60;;;10.10;99.90;;;;;;5027868;28;20210;-34
2021/04/14 12:59:34;;;;;;;3.72;1.85;;;10.90;99.90;;;;;;5029752;28;20216;-35
2021/04/14 13:02:05;;;;;;;3.55;1.88;;;11.30;99.90;;;;;;5032275;28;20211;-36
2021/04/14 13:04:37;;;;;;;4.97;1.80;;;11.30;99.90;;;;;;5032197;28;20537;-35
2021/04/14 13:07:08;;;;;;;4.30;2.00;;;11.00;99.90;;;;;;5032076;28;20212;-34
2021/04/14 13:09:36;;;;;;;7.18;2.65;;;10.80;99.90;;;;;;5032281;28;20472;-37
2021/04/14 13:12:08;;;;;;;2.65;1.88;;;11.20;99.90;;;;;;5031918;28;20306;-37
2021/04/14 13:14:35;;;;;;;2.38;1.30;;;11.80;99.90;;;;;;5030897;28;20201;-35
2021/04/14 13:17:08;;;;;;;4.95;1.80;;;11.70;99.90;;;;;;5031905;28;20570;-35
2021/04/14 13:19:38;;;;;;;4.68;1.42;;;11.60;99.90;;;;;;5031063;28;20209;-34
2021/04/14 13:22:08;;;;;;;4.68;2.33;;;11.70;99.90;;;;;;5049674;28;20253;-36
2021/04/14 13:24:41;;;;;;;5.85;1.63;;;11.90;99.90;;;;;;5027737;28;20200;-34
2021/04/14 13:27:19;;;;;;;1.98;1.70;;;11.80;99.90;;;;;;5035360;22;20254;-35
2021/04/14 13:29:53;;;;;;;3.20;1.50;;;11.80;99.90;;;;;;5031773;28;20223;-35
2021/04/14 13:32:28;;;;;;;8.35;1.88;;;11.50;99.90;;;;;;5031979;28;20202;-35
2021/04/14 13:35:21;;;;;;;5.03;1.38;;;11.80;99.90;;;;;;5031551;28;20198;-37
2021/04/14 13:37:52;;;;;;;8.38;1.80;;;12.30;99.90;;;;;;4991706;28;20252;-37
2021/04/14 13:40:38;;;;;;;2.22;1.40;;;12.30;99.90;;;;;;4992393;28;20199;-36
2021/04/14 13:43:10;;;;;;;3.08;1.38;;;11.70;99.90;;;;;;4991273;28;20201;-38
2021/04/14 13:45:49;;;;;;;6.07;1.33;;;11.20;99.90;;;;;;4992015;28;20248;-36
2021/04/14 13:48:21;;;;;;;2.95;1.42;;;10.80;99.90;;;;;;4992277;28;20267;-37